KPKB/PKB METAR and TAF weather

Enter ICAO airport designator
Station Type Date Time Source
KPKB METAR 2018/12/15 20:53 UTC NOAA

KPKB 152053Z 09005KT 10SM OVC010 13/11 A2990 RMK AO2 RAE10 SLP125 P0000 60002 T01280111 55002


Station Type Date Time Source
KPKB Decoded METAR 2018/12/15 20:53 UTC NOAA

MID-OHIO VALLEY RGNL AIRPORT, WV, United States (KPKB) 39-20N 81-27W
Dec 15, 2018 - 03:53 PM EST / 2018.12.15 2053 UTC
Wind: from the E (090 degrees) at 6 MPH (5 KT):0
Visibility: 10 mile(s):0
Sky conditions: overcast
Precipitation last hour: A trace
Temperature: 55.0 F (12.8 C)
Dew Point: 52.0 F (11.1 C)
Relative Humidity: 89%
Pressure (altimeter): 29.9 in. Hg (1012 hPa)
Pressure tendency: 0.01 inches (0.2 hPa) lower than three hours ago
ob: KPKB 152053Z 09005KT 10SM OVC010 13/11 A2990 RMK AO2 RAE10 SLP125 P0000 60002 T01280111 55002
cycle: 21

Station Type Date Time Source
KPKB TAF 2018/12/15 21:16 UTC NOAA

TAF
AMD KPKB 152114Z 1521/1618 10007KT P6SM -RA OVC015
FM152300 03007KT 5SM -RA OVC012
TEMPO 1523/1602 2SM -RA OVC008
FM160200 04006KT 2SM -RA BR OVC008
FM160400 VRB04KT 2SM -RA BR OVC004
FM161400 01005KT 4SM -RADZ BR OVC006
FM161600 35005KT P6SM OVC009


Example: see airport list